createdAt,value
2017-10-24T00:00:01.364Z,8.6
2017-10-24T00:01:20.022Z,8.6
2017-10-24T00:02:38.670Z,8.6
2017-10-24T00:03:57.349Z,8.6
2017-10-24T00:05:16.024Z,8.6
2017-10-24T00:06:34.692Z,8.6
2017-10-24T00:07:53.343Z,8.6
2017-10-24T00:09:11.987Z,8.6
2017-10-24T00:10:30.682Z,8.6
2017-10-24T00:11:49.335Z,8.6
2017-10-24T00:13:07.977Z,8.6
2017-10-24T00:14:26.627Z,8.6
2017-10-24T00:15:45.273Z,8.6
2017-10-24T00:17:03.944Z,8.6
2017-10-24T00:18:22.593Z,8.6
2017-10-24T00:19:41.302Z,8.6
2017-10-24T00:20:59.957Z,8.7
2017-10-24T00:22:18.649Z,8.6
2017-10-24T00:23:37.328Z,8.6
2017-10-24T00:24:55.978Z,8.6
2017-10-24T00:26:14.672Z,8.7
2017-10-24T00:27:33.372Z,8.7
2017-10-24T00:28:52.021Z,8.7
2017-10-24T00:30:10.735Z,8.7
2017-10-24T00:31:29.383Z,8.7
2017-10-24T00:32:48.031Z,8.7
2017-10-24T00:34:06.672Z,8.7
2017-10-24T00:35:25.356Z,8.7
2017-10-24T00:36:44.012Z,8.8
2017-10-24T00:38:02.694Z,8.8
2017-10-24T00:39:21.349Z,8.8
2017-10-24T00:40:39.987Z,8.7
2017-10-24T00:41:58.637Z,8.8
2017-10-24T00:43:17.341Z,8.8
2017-10-24T00:44:36.042Z,8.8
2017-10-24T00:45:54.692Z,8.7
2017-10-24T00:47:13.373Z,8.7
2017-10-24T00:48:32.100Z,8.6
2017-10-24T00:49:50.751Z,8.6
2017-10-24T00:51:09.406Z,8.6
2017-10-24T00:52:28.049Z,8.6
2017-10-24T00:53:46.701Z,8.5
2017-10-24T00:55:05.350Z,8.5
2017-10-24T00:56:23.999Z,8.6
2017-10-24T00:57:42.646Z,8.5
2017-10-24T00:59:01.333Z,8.5
2017-10-24T01:00:19.983Z,8.5
2017-10-24T01:01:38.646Z,8.5
2017-10-24T01:02:57.317Z,8.6
2017-10-24T01:04:15.982Z,8.5
2017-10-24T01:05:34.675Z,8.5
2017-10-24T01:06:53.339Z,8.5
2017-10-24T01:08:12.006Z,8.5
2017-10-24T01:09:30.679Z,8.5
2017-10-24T01:10:49.331Z,8.5
2017-10-24T01:12:08.026Z,8.5
2017-10-24T01:13:26.670Z,8.5
2017-10-24T01:14:45.327Z,8.5
2017-10-24T01:16:03.976Z,8.5
2017-10-24T01:17:22.633Z,8.5
2017-10-24T01:18:41.283Z,8.5
2017-10-24T01:19:59.962Z,8.5
2017-10-24T01:21:18.630Z,8.4
2017-10-24T01:22:37.317Z,8.5
2017-10-24T01:23:55.963Z,8.5
2017-10-24T01:25:14.641Z,8.5
2017-10-24T01:26:33.285Z,8.4
2017-10-24T01:27:51.980Z,8.4
2017-10-24T01:29:10.630Z,8.4
2017-10-24T01:30:29.278Z,8.3
2017-10-24T01:31:47.930Z,8.3
2017-10-24T01:33:06.574Z,8.3
2017-10-24T01:34:25.273Z,8.3
2017-10-24T01:35:43.936Z,8.3
2017-10-24T01:37:02.578Z,8.3
2017-10-24T01:38:21.237Z,8.2
2017-10-24T01:39:39.896Z,8.2
2017-10-24T01:40:58.586Z,8.2
2017-10-24T01:42:17.272Z,8.2
2017-10-24T01:43:35.977Z,8.1
2017-10-24T01:44:54.670Z,8.1
2017-10-24T01:46:13.348Z,8.1
2017-10-24T01:47:32.024Z,8.1
2017-10-24T01:48:50.666Z,8.1
2017-10-24T01:50:09.369Z,8
2017-10-24T01:51:28.022Z,8.1
2017-10-24T01:52:46.679Z,8.1
2017-10-24T01:54:05.430Z,8.1
2017-10-24T01:55:24.076Z,8.1
2017-10-24T01:56:42.789Z,8.1
2017-10-24T01:58:01.488Z,8.1
2017-10-24T01:59:20.179Z,8.2
2017-10-24T02:00:38.879Z,8.2
2017-10-24T02:01:57.544Z,8.2
2017-10-24T02:03:16.183Z,8.2
2017-10-24T02:04:34.841Z,8.2
2017-10-24T02:05:53.489Z,8.3
2017-10-24T02:07:12.148Z,8.3
2017-10-24T02:08:30.794Z,8.3
2017-10-24T02:09:49.464Z,8.3
2017-10-24T02:11:08.160Z,8.3
2017-10-24T02:12:26.899Z,8.3
2017-10-24T02:13:45.577Z,8.3
2017-10-24T02:15:04.242Z,8.3
2017-10-24T02:16:22.897Z,8.4
2017-10-24T02:17:41.575Z,8.4
2017-10-24T02:19:00.304Z,8.4
2017-10-24T02:20:18.995Z,8.4
2017-10-24T02:21:37.644Z,8.4
2017-10-24T02:22:56.306Z,8.5
2017-10-24T02:24:14.979Z,8.5
2017-10-24T02:25:33.705Z,8.5
2017-10-24T02:26:52.351Z,8.5
2017-10-24T02:28:11.000Z,8.5
2017-10-24T02:29:29.655Z,8.5
2017-10-24T02:30:48.308Z,8.5
2017-10-24T02:32:06.982Z,8.5
2017-10-24T02:33:25.645Z,8.5
2017-10-24T02:34:44.311Z,8.5
2017-10-24T02:36:02.960Z,8.5
2017-10-24T02:37:21.666Z,8.5
2017-10-24T02:38:40.324Z,8.5
2017-10-24T02:39:58.966Z,8.5
2017-10-24T02:41:17.638Z,8.5
2017-10-24T02:42:36.279Z,8.5
2017-10-24T02:43:54.963Z,8.5
2017-10-24T02:45:13.669Z,8.5
2017-10-24T02:46:32.339Z,8.5
2017-10-24T02:47:50.994Z,8.5
2017-10-24T02:49:09.673Z,8.5
2017-10-24T02:50:28.371Z,8.5
2017-10-24T02:51:47.064Z,8.5
2017-10-24T02:53:05.721Z,8.4
2017-10-24T02:54:24.376Z,8.4
2017-10-24T02:55:43.025Z,8.4
2017-10-24T02:57:01.742Z,8.4
2017-10-24T02:58:20.393Z,8.4
2017-10-24T02:59:39.063Z,8.4
2017-10-24T03:00:57.727Z,8.3
2017-10-24T03:02:16.375Z,8.3
2017-10-24T03:03:35.076Z,8.3
2017-10-24T03:04:53.742Z,8.3
2017-10-24T03:06:12.401Z,8.3
2017-10-24T03:07:31.104Z,8.3
2017-10-24T03:08:49.745Z,8.3
2017-10-24T03:10:08.443Z,8.3
2017-10-24T03:11:27.112Z,8.2
2017-10-24T03:12:45.759Z,8.2
2017-10-24T03:14:04.405Z,8.2
2017-10-24T03:15:23.077Z,8.2
2017-10-24T03:16:41.766Z,8.2
2017-10-24T03:18:00.418Z,8.2
2017-10-24T03:19:19.112Z,8.1
2017-10-24T03:20:37.765Z,8.1
2017-10-24T03:21:56.418Z,8.1
2017-10-24T03:23:15.082Z,8.2
2017-10-24T03:24:33.746Z,8.2
2017-10-24T03:25:52.407Z,8.2
2017-10-24T03:27:11.051Z,8.2
2017-10-24T03:28:29.711Z,8.2
2017-10-24T03:29:48.376Z,8.2
2017-10-24T03:31:07.048Z,8.2
2017-10-24T03:32:25.684Z,8.2
2017-10-24T03:33:44.324Z,8.3
2017-10-24T03:35:02.969Z,8.2
2017-10-24T03:36:21.698Z,8.2
2017-10-24T03:37:40.343Z,8.2
2017-10-24T03:38:59.042Z,8.2
2017-10-24T03:40:17.698Z,8.2
2017-10-24T03:41:36.366Z,8.1
2017-10-24T03:42:55.064Z,8.1
2017-10-24T03:44:13.745Z,8.1
2017-10-24T03:45:32.387Z,8.1
2017-10-24T03:46:51.097Z,8.1
2017-10-24T03:48:09.740Z,8
2017-10-24T03:49:28.435Z,7.9
2017-10-24T03:50:47.083Z,7.8
2017-10-24T03:52:05.737Z,7.8
2017-10-24T03:53:24.406Z,7.8
2017-10-24T03:54:43.101Z,7.8
2017-10-24T03:56:01.800Z,7.8
2017-10-24T03:57:20.474Z,7.8
2017-10-24T03:58:39.116Z,7.8
2017-10-24T03:59:57.792Z,7.7
2017-10-24T04:01:16.500Z,7.7
2017-10-24T04:02:35.171Z,7.7
2017-10-24T04:03:53.835Z,7.8
2017-10-24T04:05:12.487Z,7.8
2017-10-24T04:06:31.173Z,7.8
2017-10-24T04:07:49.877Z,7.8
2017-10-24T04:09:08.516Z,7.7
2017-10-24T04:10:27.159Z,7.7
2017-10-24T04:11:45.854Z,7.6
2017-10-24T04:13:04.545Z,7.6
2017-10-24T04:14:23.190Z,7.6
2017-10-24T04:15:41.848Z,7.5
2017-10-24T04:17:00.494Z,7.5
2017-10-24T04:18:19.154Z,7.4
2017-10-24T04:19:37.833Z,7.4
2017-10-24T04:20:56.509Z,7.3
2017-10-24T04:22:15.202Z,7.3
2017-10-24T04:23:33.868Z,7.3
2017-10-24T04:24:52.567Z,7.2
2017-10-24T04:26:11.227Z,7.1
2017-10-24T04:27:29.892Z,7
2017-10-24T04:28:48.552Z,7
2017-10-24T04:30:07.200Z,7.1
2017-10-24T04:31:25.870Z,7.1
2017-10-24T04:32:44.523Z,7.1
2017-10-24T04:34:03.199Z,7
2017-10-24T04:35:21.849Z,6.9
2017-10-24T04:36:40.500Z,6.8
2017-10-24T04:37:59.198Z,6.7
2017-10-24T04:39:17.899Z,6.7
2017-10-24T04:40:36.550Z,6.6
2017-10-24T04:41:55.197Z,6.6
2017-10-24T04:43:13.845Z,6.6
2017-10-24T04:44:32.556Z,6.6
2017-10-24T04:45:51.235Z,6.5
2017-10-24T04:47:09.902Z,6.4
2017-10-24T04:48:28.600Z,6.3
2017-10-24T04:49:47.291Z,6.3
2017-10-24T04:51:05.933Z,6.3
2017-10-24T04:52:24.678Z,6.2
2017-10-24T04:53:43.377Z,6.2
2017-10-24T04:55:02.097Z,6.1
2017-10-24T04:56:20.781Z,6.1
2017-10-24T04:57:39.483Z,6.1
2017-10-24T04:58:58.150Z,6
2017-10-24T05:00:16.814Z,6.1
2017-10-24T05:01:35.482Z,6.2
2017-10-24T05:02:54.140Z,6.2
2017-10-24T05:04:12.786Z,6.2
2017-10-24T05:05:31.493Z,6.3
2017-10-24T05:06:50.188Z,6.5
2017-10-24T05:08:08.837Z,6.5
2017-10-24T05:09:27.490Z,6.5
2017-10-24T05:10:46.168Z,6.5
2017-10-24T05:12:04.862Z,6.7
2017-10-24T05:13:23.508Z,6.8
2017-10-24T05:14:42.156Z,6.8
2017-10-24T05:16:00.844Z,6.9
2017-10-24T05:17:19.565Z,7
2017-10-24T05:18:38.227Z,6.9
2017-10-24T05:19:56.906Z,6.9
2017-10-24T05:21:15.588Z,7.1
2017-10-24T05:22:34.293Z,7.2
2017-10-24T05:23:52.943Z,7.2
2017-10-24T05:25:11.619Z,7.4
2017-10-24T05:26:30.285Z,7.4
2017-10-24T05:27:48.933Z,7.5
2017-10-24T05:29:07.631Z,7.4
2017-10-24T05:30:26.286Z,7.3
2017-10-24T05:31:44.943Z,7.3
2017-10-24T05:33:03.618Z,7.3
2017-10-24T05:34:22.287Z,7.3
2017-10-24T05:35:41.009Z,7.3
2017-10-24T05:36:59.665Z,7.3
2017-10-24T05:38:18.317Z,7.3
2017-10-24T05:39:37.018Z,7.3
2017-10-24T05:40:55.670Z,7.3
2017-10-24T05:42:14.392Z,7.3
2017-10-24T05:43:33.046Z,7.3
2017-10-24T05:44:51.691Z,7.3
2017-10-24T05:46:10.340Z,7.3
2017-10-24T05:47:29.029Z,7.3
2017-10-24T05:48:47.692Z,7.2
2017-10-24T05:50:06.348Z,7.3
2017-10-24T05:51:24.995Z,7.3
2017-10-24T05:52:43.681Z,7.3
2017-10-24T05:54:02.330Z,7.2
2017-10-24T05:55:21.042Z,7.2
2017-10-24T05:56:39.679Z,7.2
2017-10-24T05:57:58.368Z,7.1
2017-10-24T05:59:17.014Z,7.2
2017-10-24T06:00:35.648Z,7.2
2017-10-24T06:01:54.377Z,7.2
2017-10-24T06:03:13.059Z,7.2
2017-10-24T06:04:31.758Z,7.2
2017-10-24T06:05:50.419Z,7.2
2017-10-24T06:07:09.076Z,7.2
2017-10-24T06:08:27.733Z,7.2
2017-10-24T06:09:46.385Z,7.3
2017-10-24T06:11:05.029Z,7.3
2017-10-24T06:12:23.677Z,7.4
2017-10-24T06:13:42.377Z,7.5
2017-10-24T06:15:01.055Z,7.5
2017-10-24T06:16:19.718Z,7.5
2017-10-24T06:17:38.410Z,7.5
2017-10-24T06:18:57.095Z,7.6
2017-10-24T06:20:15.791Z,7.6
2017-10-24T06:21:34.460Z,7.6
2017-10-24T06:22:53.102Z,7.6
2017-10-24T06:24:11.773Z,7.6
2017-10-24T06:25:30.419Z,7.6
2017-10-24T06:26:49.071Z,7.6
2017-10-24T06:28:07.769Z,7.6
2017-10-24T06:29:26.412Z,7.6
2017-10-24T06:30:45.077Z,7.7
2017-10-24T06:32:03.729Z,7.7
2017-10-24T06:33:22.387Z,7.8
2017-10-24T06:34:41.059Z,7.8
2017-10-24T06:35:59.708Z,7.8
2017-10-24T06:37:18.412Z,7.8
2017-10-24T06:38:37.054Z,7.9
2017-10-24T06:39:55.757Z,7.8
2017-10-24T06:41:14.406Z,7.8
2017-10-24T06:42:33.100Z,7.9
2017-10-24T06:43:51.764Z,7.9
2017-10-24T06:45:10.436Z,8
2017-10-24T06:46:29.137Z,8
2017-10-24T06:47:47.824Z,8
2017-10-24T06:49:06.484Z,8.1
2017-10-24T06:50:25.147Z,8.1
2017-10-24T06:51:43.790Z,8.2
2017-10-24T06:53:02.461Z,8.2
2017-10-24T06:54:21.115Z,8.2
2017-10-24T06:55:39.802Z,8.2
2017-10-24T06:56:58.444Z,8.2
2017-10-24T06:58:17.087Z,8.2
2017-10-24T06:59:35.762Z,8.2
2017-10-24T07:00:54.409Z,8.2
2017-10-24T07:02:13.056Z,8.2
2017-10-24T07:03:31.706Z,8.3
2017-10-24T07:04:50.361Z,8.3
2017-10-24T07:06:09.085Z,8.3
2017-10-24T07:07:27.744Z,8.3
2017-10-24T07:08:46.408Z,8.3
2017-10-24T07:10:05.060Z,8.4
2017-10-24T07:11:23.747Z,8.4
2017-10-24T07:12:42.394Z,8.5
2017-10-24T07:14:01.049Z,8.5
2017-10-24T07:15:19.689Z,8.5
2017-10-24T07:16:38.396Z,8.5
2017-10-24T07:17:57.045Z,8.5
2017-10-24T07:19:15.722Z,8.5
2017-10-24T07:20:34.364Z,8.5
2017-10-24T07:21:53.023Z,8.6
2017-10-24T07:23:11.722Z,8.6
2017-10-24T07:24:30.392Z,8.6
2017-10-24T07:25:49.047Z,8.7
2017-10-24T07:27:07.702Z,8.7
2017-10-24T07:28:26.349Z,8.7
2017-10-24T07:29:44.987Z,8.8
2017-10-24T07:31:03.639Z,8.8
2017-10-24T07:32:22.310Z,8.9
2017-10-24T07:33:40.961Z,9
2017-10-24T07:34:59.612Z,9.1
2017-10-24T07:36:18.260Z,9.2
2017-10-24T07:37:36.930Z,9.2
2017-10-24T07:38:55.600Z,9.3
2017-10-24T07:40:14.292Z,9.3
2017-10-24T07:41:32.996Z,9.4
2017-10-24T07:42:51.646Z,9.5
2017-10-24T07:44:10.292Z,9.6
2017-10-24T07:45:28.991Z,9.7
2017-10-24T07:46:47.642Z,9.7
2017-10-24T07:48:06.324Z,9.7
2017-10-24T07:49:24.970Z,9.7
2017-10-24T07:50:43.627Z,9.9
2017-10-24T07:52:02.316Z,9.9
2017-10-24T07:53:21.021Z,9.9
2017-10-24T07:54:39.695Z,9.9
2017-10-24T07:55:58.363Z,9.9
2017-10-24T07:57:17.013Z,9.9
2017-10-24T07:58:35.705Z,10
2017-10-24T07:59:54.371Z,10
2017-10-24T08:01:13.042Z,10.1
2017-10-24T08:02:31.706Z,10.1
2017-10-24T08:03:50.482Z,10.1
2017-10-24T08:05:09.144Z,10.2
2017-10-24T08:06:27.843Z,10.2
2017-10-24T08:07:46.512Z,10.3
2017-10-24T08:09:05.202Z,10.3
2017-10-24T08:10:23.886Z,10.1
2017-10-24T08:11:42.613Z,10.3
2017-10-24T08:13:01.331Z,10.2
2017-10-24T08:14:20.049Z,10.4
2017-10-24T08:15:38.766Z,10.5
2017-10-24T08:16:57.424Z,10.6
2017-10-24T08:18:16.100Z,10.6
2017-10-24T08:19:34.812Z,10.7
2017-10-24T08:20:53.530Z,10.6
2017-10-24T08:22:12.230Z,10.7
2017-10-24T08:23:30.944Z,10.7
2017-10-24T08:24:49.605Z,10.8
2017-10-24T08:26:08.273Z,10.7
2017-10-24T08:27:26.965Z,10.8
2017-10-24T08:28:45.631Z,10.8
2017-10-24T08:30:04.294Z,10.7
2017-10-24T08:31:23.018Z,10.9
2017-10-24T08:32:41.708Z,10.7
2017-10-24T08:34:00.406Z,10.8
2017-10-24T08:35:19.079Z,10.9
2017-10-24T08:36:37.741Z,11
2017-10-24T08:37:56.403Z,11
2017-10-24T08:39:15.069Z,11.2
2017-10-24T08:40:33.806Z,11.2
2017-10-24T08:41:52.506Z,11.1
2017-10-24T08:43:11.170Z,11.2
2017-10-24T08:44:29.848Z,11.3
2017-10-24T08:45:48.570Z,11.3
2017-10-24T08:47:07.231Z,11.5
2017-10-24T08:48:25.890Z,11.5
2017-10-24T08:49:44.596Z,11.5
2017-10-24T08:51:03.276Z,11.5
2017-10-24T08:52:21.946Z,11.3
2017-10-24T08:53:40.654Z,11.5
2017-10-24T08:54:59.373Z,11.4
2017-10-24T08:56:18.059Z,11.6
2017-10-24T08:57:36.718Z,11.8
2017-10-24T08:58:55.449Z,11.8
2017-10-24T09:00:14.107Z,11.6
2017-10-24T09:01:32.786Z,11.6
2017-10-24T09:02:51.454Z,12
2017-10-24T09:04:10.156Z,12.3
2017-10-24T09:05:28.825Z,12.5
2017-10-24T09:06:47.574Z,12.6
2017-10-24T09:08:06.236Z,12.7
2017-10-24T09:09:24.901Z,12.8
2017-10-24T09:10:43.608Z,12.9
2017-10-24T09:12:02.347Z,12.6
2017-10-24T09:13:21.058Z,12.6
2017-10-24T09:14:39.736Z,12.4
2017-10-24T09:15:58.465Z,12.2
2017-10-24T09:17:17.168Z,12.3
2017-10-24T09:18:35.881Z,12.2
2017-10-24T09:19:54.572Z,12.1
2017-10-24T09:21:13.228Z,12.3
2017-10-24T09:22:31.907Z,12.5
2017-10-24T09:23:50.576Z,12.5
2017-10-24T09:25:09.234Z,12.6
2017-10-24T09:26:27.948Z,12.9
2017-10-24T09:27:46.736Z,12.8
2017-10-24T09:29:05.441Z,12.7
2017-10-24T09:30:24.124Z,12.9
2017-10-24T09:31:42.781Z,12.9
2017-10-24T09:33:01.439Z,12.9
2017-10-24T09:34:20.122Z,13.1
2017-10-24T09:35:38.851Z,13.2
2017-10-24T09:36:57.511Z,12.8
2017-10-24T09:38:16.184Z,12.7
2017-10-24T09:39:34.865Z,12.5
2017-10-24T09:40:53.534Z,12.6
2017-10-24T09:42:12.200Z,12.6
2017-10-24T09:43:30.881Z,12.7
2017-10-24T09:44:49.542Z,12.6
2017-10-24T09:46:08.276Z,12.6
2017-10-24T09:47:26.968Z,12.3
2017-10-24T09:48:45.635Z,12.3
2017-10-24T09:50:04.345Z,12.6
2017-10-24T09:51:23.002Z,12.7
2017-10-24T09:52:41.671Z,12.7
2017-10-24T09:54:00.412Z,12.6
2017-10-24T09:55:19.084Z,12.6
2017-10-24T09:56:37.752Z,12.5
2017-10-24T09:57:56.416Z,12.9
2017-10-24T09:59:15.126Z,12.9
2017-10-24T10:00:33.788Z,12.9
2017-10-24T10:01:52.484Z,13.2
2017-10-24T10:03:11.162Z,13.4
2017-10-24T10:04:29.856Z,13.6
2017-10-24T10:05:48.523Z,13.8
2017-10-24T10:07:07.187Z,13.6
2017-10-24T10:08:25.846Z,13.5
2017-10-24T10:09:44.582Z,13.4
2017-10-24T10:11:03.319Z,13.6
2017-10-24T10:12:21.986Z,13.8
2017-10-24T10:13:40.646Z,13.9
2017-10-24T10:14:59.363Z,14
2017-10-24T10:16:18.028Z,14
2017-10-24T10:17:36.715Z,14
2017-10-24T10:18:55.386Z,14.1
2017-10-24T10:20:14.072Z,13.9
2017-10-24T10:21:32.739Z,14.1
2017-10-24T10:22:51.399Z,14
2017-10-24T10:24:10.079Z,13.8
2017-10-24T10:25:28.771Z,13.5
2017-10-24T10:26:47.462Z,13.5
2017-10-24T10:28:06.126Z,13.4
2017-10-24T10:29:24.810Z,13.5
2017-10-24T10:30:43.549Z,13.7
2017-10-24T10:32:02.207Z,13.7
2017-10-24T10:33:20.911Z,13.6
2017-10-24T10:34:39.579Z,13.7
2017-10-24T10:35:58.308Z,13.8
2017-10-24T10:37:17.025Z,13.8
2017-10-24T10:38:35.691Z,14
2017-10-24T10:39:54.406Z,13.9
2017-10-24T10:41:13.132Z,14
2017-10-24T10:42:31.803Z,14
2017-10-24T10:43:50.485Z,14
2017-10-24T10:45:09.150Z,14
2017-10-24T10:46:27.841Z,14
2017-10-24T10:47:46.557Z,14
2017-10-24T10:49:05.225Z,13.9
2017-10-24T10:50:23.884Z,13.9
2017-10-24T10:51:42.611Z,13.9
2017-10-24T10:53:01.277Z,14.3
2017-10-24T10:54:19.949Z,14.7
2017-10-24T10:55:38.607Z,14.7
2017-10-24T10:56:57.300Z,14.8
2017-10-24T10:58:15.960Z,15.2
2017-10-24T10:59:34.700Z,15.4
2017-10-24T11:00:53.381Z,15.9
2017-10-24T11:02:12.057Z,16
2017-10-24T11:03:30.717Z,15.9
2017-10-24T11:04:49.391Z,16
2017-10-24T11:06:08.134Z,15.7
2017-10-24T11:07:26.865Z,15.7
2017-10-24T11:08:45.524Z,15.7
2017-10-24T11:10:04.194Z,15.7
2017-10-24T11:11:22.915Z,16
2017-10-24T11:12:41.587Z,15.5
2017-10-24T11:14:00.311Z,15.4
2017-10-24T11:15:19.022Z,15.2
2017-10-24T11:16:37.686Z,15.5
2017-10-24T11:17:56.376Z,16
2017-10-24T11:19:15.043Z,16.3
2017-10-24T11:20:33.728Z,16.1
2017-10-24T11:21:52.402Z,16.1
2017-10-24T11:23:11.101Z,16
2017-10-24T11:24:29.813Z,15.9
2017-10-24T11:25:48.471Z,16.2
2017-10-24T11:27:07.184Z,16.4
2017-10-24T11:28:25.861Z,16.1
2017-10-24T11:29:44.557Z,16.1
2017-10-24T11:31:03.220Z,15.8
2017-10-24T11:32:21.936Z,15.6
2017-10-24T11:33:40.618Z,15.8
2017-10-24T11:34:59.288Z,15.8
2017-10-24T11:36:18.013Z,15.8
2017-10-24T11:37:36.720Z,15.6
2017-10-24T11:38:55.387Z,15.3
2017-10-24T11:40:14.052Z,14.9
2017-10-24T11:41:32.768Z,14.9
2017-10-24T11:42:51.480Z,15.1
2017-10-24T11:44:10.200Z,15.4
2017-10-24T11:45:28.866Z,15.8
2017-10-24T11:46:47.534Z,16
2017-10-24T11:48:06.236Z,16.3
2017-10-24T11:49:24.908Z,16.2
2017-10-24T11:50:43.575Z,16.2
2017-10-24T11:52:02.249Z,15.9
2017-10-24T11:53:20.975Z,16
2017-10-24T11:54:39.670Z,15.6
2017-10-24T11:55:58.348Z,15.4
2017-10-24T11:57:17.016Z,15.8
2017-10-24T11:58:35.676Z,15.8
2017-10-24T11:59:54.417Z,15.8
2017-10-24T12:01:13.081Z,15.9
2017-10-24T12:02:31.791Z,15.4
2017-10-24T12:03:50.494Z,14.8
2017-10-24T12:05:09.192Z,15
2017-10-24T12:06:27.890Z,15.1
2017-10-24T12:07:46.588Z,15.3
2017-10-24T12:09:05.251Z,15.1
2017-10-24T12:10:23.964Z,15
2017-10-24T12:11:42.630Z,15.3
2017-10-24T12:13:01.298Z,15.3
2017-10-24T12:14:19.966Z,15.3
2017-10-24T12:15:38.644Z,15.4
2017-10-24T12:16:57.312Z,15.4
2017-10-24T12:18:15.969Z,15.1
2017-10-24T12:19:34.634Z,15.2
2017-10-24T12:20:53.315Z,15.6
2017-10-24T12:22:12.029Z,15.8
2017-10-24T12:23:30.753Z,16.1
2017-10-24T12:24:49.517Z,16.4
2017-10-24T12:26:08.233Z,16.5
2017-10-24T12:27:26.896Z,16.9
2017-10-24T12:28:45.599Z,17.1
2017-10-24T12:30:04.295Z,17.1
2017-10-24T12:31:22.978Z,17.3
2017-10-24T12:32:41.682Z,17.1
2017-10-24T12:34:00.339Z,17.5
2017-10-24T12:35:19.040Z,18.5
2017-10-24T12:36:37.761Z,22.2
2017-10-24T12:37:56.427Z,25.9
2017-10-24T12:39:15.133Z,28.4
2017-10-24T12:40:33.795Z,30.2
2017-10-24T12:41:52.512Z,27.4
2017-10-24T12:43:11.180Z,27
2017-10-24T12:44:29.858Z,26.7
2017-10-24T12:45:48.534Z,26
2017-10-24T12:47:07.221Z,25.5
2017-10-24T12:48:25.888Z,23.3
2017-10-24T12:49:44.560Z,21.2
2017-10-24T12:51:03.221Z,19.9
2017-10-24T12:52:21.904Z,19.1
2017-10-24T12:53:40.611Z,18.9
2017-10-24T12:54:59.341Z,18.7
2017-10-24T12:56:18.000Z,19.5
2017-10-24T12:57:36.685Z,19.2
2017-10-24T12:58:55.390Z,20
2017-10-24T13:00:14.061Z,19.4
2017-10-24T13:01:32.718Z,18.2
2017-10-24T13:02:51.456Z,17.6
2017-10-24T13:04:10.161Z,16.8
2017-10-24T13:05:28.823Z,16.1
2017-10-24T13:06:47.540Z,15.8
2017-10-24T13:08:06.278Z,15.3
2017-10-24T13:09:24.940Z,15.3
2017-10-24T13:10:43.621Z,15.5
2017-10-24T13:12:02.287Z,15.5
2017-10-24T13:13:20.968Z,15.5
2017-10-24T13:14:39.628Z,15.5
2017-10-24T13:15:58.299Z,16
2017-10-24T13:17:16.973Z,16.4
2017-10-24T13:18:35.655Z,16.2
2017-10-24T13:19:54.355Z,16.6
2017-10-24T13:21:13.017Z,16.3
2017-10-24T13:22:31.680Z,15.7
2017-10-24T13:23:50.424Z,15.5
2017-10-24T13:25:09.119Z,15.7
2017-10-24T13:26:27.799Z,19
2017-10-24T13:27:46.479Z,19.7
2017-10-24T13:29:05.171Z,18.6
2017-10-24T13:30:23.852Z,19.1
2017-10-24T13:31:42.550Z,18.9
2017-10-24T13:33:01.211Z,18.2
2017-10-24T13:34:19.902Z,18.2
2017-10-24T13:35:38.579Z,17.5
2017-10-24T13:36:57.245Z,16.5
2017-10-24T13:38:15.945Z,16
2017-10-24T13:39:34.667Z,15.6
2017-10-24T13:40:53.334Z,15.5
2017-10-24T13:42:12.024Z,15.3
2017-10-24T13:43:30.719Z,15.1
2017-10-24T13:44:49.414Z,14.8
2017-10-24T13:46:08.078Z,14.7
2017-10-24T13:47:26.734Z,14.2
2017-10-24T13:48:45.451Z,14.1
2017-10-24T13:50:04.149Z,14.2
2017-10-24T13:51:22.850Z,14.1
2017-10-24T13:52:41.525Z,13.9
2017-10-24T13:54:00.197Z,13.7
2017-10-24T13:55:18.889Z,13.6
2017-10-24T13:56:37.574Z,13.6
2017-10-24T13:57:56.255Z,13.6
2017-10-24T13:59:14.915Z,13.4
2017-10-24T14:00:33.613Z,13.4
2017-10-24T14:01:52.301Z,13.4
2017-10-24T14:03:10.976Z,13.5
2017-10-24T14:04:29.632Z,13.5
2017-10-24T14:05:48.350Z,13.4
2017-10-24T14:07:07.035Z,13.3
2017-10-24T14:08:25.705Z,13.3
2017-10-24T14:09:44.407Z,13.2
2017-10-24T14:11:03.091Z,13
2017-10-24T14:12:21.757Z,12.9
2017-10-24T14:13:40.498Z,13
2017-10-24T14:14:59.160Z,13.2
2017-10-24T14:16:17.894Z,13.3
2017-10-24T14:17:36.558Z,13.2
2017-10-24T14:18:55.229Z,13.1
2017-10-24T14:20:13.927Z,13.2
2017-10-24T14:21:32.611Z,13.2
2017-10-24T14:22:51.322Z,13.3
2017-10-24T14:24:10.024Z,13.2
2017-10-24T14:25:28.715Z,13.1
2017-10-24T14:26:47.393Z,13.1
2017-10-24T14:28:06.104Z,13.1
2017-10-24T14:29:24.792Z,13
2017-10-24T14:30:43.508Z,13
2017-10-24T14:32:02.237Z,13
2017-10-24T14:33:20.909Z,12.9
2017-10-24T14:34:39.582Z,12.8
2017-10-24T14:35:58.280Z,12.8
2017-10-24T14:37:16.966Z,12.9
2017-10-24T14:38:35.654Z,12.9
2017-10-24T14:39:54.374Z,12.8
2017-10-24T14:41:13.054Z,12.6
2017-10-24T14:42:31.735Z,12.7
2017-10-24T14:43:50.400Z,12.7
2017-10-24T14:45:09.086Z,12.7
2017-10-24T14:46:27.750Z,12.6
2017-10-24T14:47:46.442Z,12.7
2017-10-24T14:49:05.108Z,12.6
2017-10-24T14:50:23.813Z,12.6
2017-10-24T14:51:42.510Z,12.6
2017-10-24T14:53:01.191Z,12.7
2017-10-24T14:54:19.859Z,12.7
2017-10-24T14:55:38.574Z,12.7
2017-10-24T14:56:57.235Z,12.7
2017-10-24T14:58:15.905Z,12.7
2017-10-24T14:59:34.596Z,12.6
2017-10-24T15:00:53.283Z,12.6
2017-10-24T15:02:11.951Z,12.5
2017-10-24T15:03:30.668Z,12.6
2017-10-24T15:04:49.356Z,12.6
2017-10-24T15:06:08.049Z,12.6
2017-10-24T15:07:26.765Z,12.6
2017-10-24T15:08:45.450Z,12.6
2017-10-24T15:10:04.157Z,12.5
2017-10-24T15:11:22.869Z,12.5
2017-10-24T15:12:41.572Z,12.5
2017-10-24T15:14:00.246Z,12.6
2017-10-24T15:15:18.935Z,12.5
2017-10-24T15:16:37.656Z,12.5
2017-10-24T15:17:56.381Z,12.5
2017-10-24T15:19:15.073Z,12.4
2017-10-24T15:20:33.761Z,12.4
2017-10-24T15:21:52.430Z,12.4
2017-10-24T15:23:11.146Z,12.4
2017-10-24T15:24:29.867Z,12.5
2017-10-24T15:25:48.569Z,12.4
2017-10-24T15:27:07.234Z,12.5
2017-10-24T15:28:25.942Z,12.4
2017-10-24T15:29:44.613Z,12.4
2017-10-24T15:31:03.272Z,12.4
2017-10-24T15:32:22.005Z,12.3
2017-10-24T15:33:40.690Z,12.2
2017-10-24T15:34:59.424Z,12.1
2017-10-24T15:36:18.083Z,12.1
2017-10-24T15:37:36.755Z,12
2017-10-24T15:38:55.426Z,12
2017-10-24T15:40:14.104Z,11.9
2017-10-24T15:41:32.790Z,11.9
2017-10-24T15:42:51.499Z,11.9
2017-10-24T15:44:10.161Z,11.9
2017-10-24T15:45:28.842Z,11.8
2017-10-24T15:46:47.530Z,11.9
2017-10-24T15:48:06.239Z,11.9
2017-10-24T15:49:24.900Z,11.8
2017-10-24T15:50:43.645Z,11.8
2017-10-24T15:52:02.349Z,11.9
2017-10-24T15:53:21.065Z,11.9
2017-10-24T15:54:39.767Z,11.9
2017-10-24T15:55:58.461Z,11.9
2017-10-24T15:57:17.151Z,11.9
2017-10-24T15:58:35.838Z,11.9
2017-10-24T15:59:54.509Z,11.9
2017-10-24T16:01:13.191Z,11.9
2017-10-24T16:02:31.903Z,11.9
2017-10-24T16:03:50.585Z,11.9
2017-10-24T16:05:09.300Z,11.8
2017-10-24T16:06:28.025Z,11.8
2017-10-24T16:07:46.744Z,11.8
2017-10-24T16:09:05.405Z,11.8
2017-10-24T16:10:24.082Z,11.8
2017-10-24T16:11:42.774Z,11.7
2017-10-24T16:13:01.478Z,11.7
2017-10-24T16:14:20.145Z,11.8
2017-10-24T16:15:38.812Z,11.8
2017-10-24T16:16:57.482Z,11.8
2017-10-24T16:18:16.189Z,11.8
2017-10-24T16:19:34.894Z,11.9
2017-10-24T16:20:53.576Z,11.8
2017-10-24T16:22:12.290Z,11.9
2017-10-24T16:23:30.952Z,11.9
2017-10-24T16:24:49.613Z,11.9
2017-10-24T16:26:08.348Z,11.8
2017-10-24T16:27:27.076Z,11.8
2017-10-24T16:28:45.789Z,11.8
2017-10-24T16:30:04.452Z,11.8
2017-10-24T16:31:23.144Z,11.8
2017-10-24T16:32:41.859Z,11.8
2017-10-24T16:34:00.534Z,11.8
2017-10-24T16:35:19.235Z,11.8
2017-10-24T16:36:37.892Z,11.8
2017-10-24T16:37:56.584Z,11.8
2017-10-24T16:39:15.248Z,11.8
2017-10-24T16:40:33.919Z,11.8
2017-10-24T16:41:52.642Z,11.7
2017-10-24T16:43:11.301Z,11.7
2017-10-24T16:44:29.969Z,11.7
2017-10-24T16:45:48.635Z,11.7
2017-10-24T16:47:07.297Z,11.6
2017-10-24T16:48:26.014Z,11.6
2017-10-24T16:49:44.719Z,11.6
2017-10-24T16:51:03.432Z,11.6
2017-10-24T16:52:22.098Z,11.6
2017-10-24T16:53:40.764Z,11.6
2017-10-24T16:54:59.476Z,11.6
2017-10-24T16:56:18.158Z,11.6
2017-10-24T16:57:36.822Z,11.5
2017-10-24T16:58:55.537Z,11.5
2017-10-24T17:00:14.208Z,11.5
2017-10-24T17:01:32.895Z,11.4
2017-10-24T17:02:51.610Z,11.4
2017-10-24T17:04:10.291Z,11.4
2017-10-24T17:05:29.012Z,11.5
2017-10-24T17:06:47.733Z,11.5
2017-10-24T17:08:06.400Z,11.5
2017-10-24T17:09:25.079Z,11.5
2017-10-24T17:10:43.746Z,11.5
2017-10-24T17:12:02.481Z,11.5
2017-10-24T17:13:21.152Z,11.5
2017-10-24T17:14:39.889Z,11.4
2017-10-24T17:15:58.561Z,11.5
2017-10-24T17:17:17.225Z,11.5
2017-10-24T17:18:35.887Z,11.4
2017-10-24T17:19:54.566Z,11.4
2017-10-24T17:21:13.255Z,11.3
2017-10-24T17:22:31.932Z,11.3
2017-10-24T17:23:50.604Z,11.4
2017-10-24T17:25:09.294Z,11.4
2017-10-24T17:26:28.022Z,11.4
2017-10-24T17:27:46.690Z,11.4
2017-10-24T17:29:05.349Z,11.4
2017-10-24T17:30:24.023Z,11.4
2017-10-24T17:31:42.689Z,11.4
2017-10-24T17:33:01.350Z,11.5
2017-10-24T17:34:20.014Z,11.3
2017-10-24T17:35:38.697Z,11.3
2017-10-24T17:36:57.364Z,11.2
2017-10-24T17:38:16.036Z,11.1
2017-10-24T17:39:34.699Z,11
2017-10-24T17:40:53.436Z,10.9
2017-10-24T17:42:12.097Z,10.9
2017-10-24T17:43:30.762Z,10.8
2017-10-24T17:44:49.428Z,10.7
2017-10-24T17:46:08.140Z,10.7